sensor_id;sensor_type;location;lat;lon;timestamp;pressure;altitude;pressure_sealevel;temperature;humidity
25238;BME280;13185;50.872;5.306;2022-11-20T00:00:49;100911.53;;;3.34;100.00
25238;BME280;13185;50.872;5.306;2022-11-20T00:03:15;100906.38;;;3.29;100.00
25238;BME280;13185;50.872;5.306;2022-11-20T00:05:40;100905.44;;;3.30;100.00
25238;BME280;13185;50.872;5.306;2022-11-20T00:08:06;100910.81;;;3.29;100.00
25238;BME280;13185;50.872;5.306;2022-11-20T00:10:31;100907.13;;;3.33;100.00
25238;BME280;13185;50.872;5.306;2022-11-20T00:12:58;100901.81;;;3.33;100.00
25238;BME280;13185;50.872;5.306;2022-11-20T00:15:23;100900.97;;;3.32;100.00
25238;BME280;13185;50.872;5.306;2022-11-20T00:17:49;100907.19;;;3.31;100.00
25238;BME280;13185;50.872;5.306;2022-11-20T00:20:15;100906.31;;;3.31;100.00
25238;BME280;13185;50.872;5.306;2022-11-20T00:22:40;100905.41;;;3.32;100.00
25238;BME280;13185;50.872;5.306;2022-11-20T00:25:06;100906.25;;;3.34;100.00
25238;BME280;13185;50.872;5.306;2022-11-20T00:27:31;100899.16;;;3.34;100.00
25238;BME280;13185;50.872;5.306;2022-11-20T00:29:57;100897.31;;;3.36;100.00
25238;BME280;13185;50.872;5.306;2022-11-20T00:32:22;100897.25;;;3.38;100.00
25238;BME280;13185;50.872;5.306;2022-11-20T00:34:47;100893.72;;;3.37;100.00
25238;BME280;13185;50.872;5.306;2022-11-20T00:37:13;100896.38;;;3.37;100.00
25238;BME280;13185;50.872;5.306;2022-11-20T00:39:38;100900.72;;;3.40;100.00
25238;BME280;13185;50.872;5.306;2022-11-20T00:42:04;100902.38;;;3.42;100.00
25238;BME280;13185;50.872;5.306;2022-11-20T00:44:29;100907.66;;;3.44;100.00
25238;BME280;13185;50.872;5.306;2022-11-20T00:46:55;100904.09;;;3.45;100.00
25238;BME280;13185;50.872;5.306;2022-11-20T00:49:20;100904.03;;;3.46;100.00
25238;BME280;13185;50.872;5.306;2022-11-20T00:51:46;100908.41;;;3.47;100.00
25238;BME280;13185;50.872;5.306;2022-11-20T00:54:11;100909.31;;;3.46;100.00
25238;BME280;13185;50.872;5.306;2022-11-20T00:56:36;100927.09;;;3.43;100.00
25238;BME280;13185;50.872;5.306;2022-11-20T00:59:02;100928.03;;;3.42;100.00
25238;BME280;13185;50.872;5.306;2022-11-20T01:01:28;100925.31;;;3.43;100.00
25238;BME280;13185;50.872;5.306;2022-11-20T01:03:56;100933.19;;;3.46;100.00
25238;BME280;13185;50.872;5.306;2022-11-20T01:08:54;100931.34;;;3.48;100.00
25238;BME280;13185;50.872;5.306;2022-11-20T01:11:23;100926.91;;;3.49;100.00
25238;BME280;13185;50.872;5.306;2022-11-20T01:13:50;100920.63;;;3.52;100.00
25238;BME280;13185;50.872;5.306;2022-11-20T01:16:18;100920.56;;;3.53;100.00
25238;BME280;13185;50.872;5.306;2022-11-20T01:18:47;100911.69;;;3.54;100.00
25238;BME280;13185;50.872;5.306;2022-11-20T01:21:19;100909.94;;;3.55;100.00
25238;BME280;13185;50.872;5.306;2022-11-20T01:23:46;100919.63;;;3.56;100.00
25238;BME280;13185;50.872;5.306;2022-11-20T01:26:15;100920.47;;;3.56;100.00
25238;BME280;13185;50.872;5.306;2022-11-20T01:28:41;100936.41;;;3.56;100.00
25238;BME280;13185;50.872;5.306;2022-11-20T01:31:31;100940.84;;;3.54;100.00
25238;BME280;13185;50.872;5.306;2022-11-20T01:34:00;100942.66;;;3.54;100.00
25238;BME280;13185;50.872;5.306;2022-11-20T01:36:28;100939.13;;;3.53;100.00
25238;BME280;13185;50.872;5.306;2022-11-20T01:38:55;100941.84;;;3.52;100.00
25238;BME280;13185;50.872;5.306;2022-11-20T01:41:22;100940.06;;;3.52;100.00
25238;BME280;13185;50.872;5.306;2022-11-20T01:44:08;100942.69;;;3.52;100.00
25238;BME280;13185;50.872;5.306;2022-11-20T01:46:36;100943.50;;;3.54;100.00
25238;BME280;13185;50.872;5.306;2022-11-20T01:49:27;100932.97;;;3.53;100.00
25238;BME280;13185;50.872;5.306;2022-11-20T01:52:02;100929.38;;;3.54;100.00
25238;BME280;13185;50.872;5.306;2022-11-20T01:54:41;100932.88;;;3.56;100.00
25238;BME280;13185;50.872;5.306;2022-11-20T01:57:10;100914.34;;;3.54;100.00
25238;BME280;13185;50.872;5.306;2022-11-20T01:59:40;100919.63;;;3.56;100.00
25238;BME280;13185;50.872;5.306;2022-11-20T02:02:06;100914.34;;;3.54;100.00
25238;BME280;13185;50.872;5.306;2022-11-20T02:04:32;100904.63;;;3.55;100.00
25238;BME280;13185;50.872;5.306;2022-11-20T02:07:00;100904.63;;;3.55;100.00
25238;BME280;13185;50.872;5.306;2022-11-20T02:09:26;100912.59;;;3.55;100.00
25238;BME280;13185;50.872;5.306;2022-11-20T02:11:53;100917.88;;;3.55;100.00
25238;BME280;13185;50.872;5.306;2022-11-20T02:14:19;100916.19;;;3.52;100.00
25238;BME280;13185;50.872;5.306;2022-11-20T02:16:47;100917.97;;;3.52;100.00
25238;BME280;13185;50.872;5.306;2022-11-20T02:19:26;100907.38;;;3.52;100.00
25238;BME280;13185;50.872;5.306;2022-11-20T02:22:12;100899.53;;;3.48;100.00
25238;BME280;13185;50.872;5.306;2022-11-20T02:24:39;100905.75;;;3.47;100.00
25238;BME280;13185;50.872;5.306;2022-11-20T02:27:10;100911.00;;;3.49;100.00
25238;BME280;13185;50.872;5.306;2022-11-20T02:34:55;100903.25;;;3.43;100.00
25238;BME280;13185;50.872;5.306;2022-11-20T02:37:21;100905.91;;;3.43;100.00
25238;BME280;13185;50.872;5.306;2022-11-20T02:39:49;100903.25;;;3.43;100.00
25238;BME280;13185;50.872;5.306;2022-11-20T02:42:15;100904.16;;;3.42;100.00
25238;BME280;13185;50.872;5.306;2022-11-20T02:44:40;100909.47;;;3.42;100.00
25238;BME280;13185;50.872;5.306;2022-11-20T02:47:06;100907.69;;;3.42;100.00
25238;BME280;13185;50.872;5.306;2022-11-20T02:49:31;100906.75;;;3.43;100.00
25238;BME280;13185;50.872;5.306;2022-11-20T02:51:57;100912.91;;;3.45;100.00
25238;BME280;13185;50.872;5.306;2022-11-20T02:54:23;100913.72;;;3.47;100.00
25238;BME280;13185;50.872;5.306;2022-11-20T02:56:49;100907.53;;;3.47;100.00
25238;BME280;13185;50.872;5.306;2022-11-20T02:59:14;100901.31;;;3.48;100.00
25238;BME280;13185;50.872;5.306;2022-11-20T03:01:40;100906.63;;;3.48;100.00
25238;BME280;13185;50.872;5.306;2022-11-20T03:04:05;100902.19;;;3.48;100.00
25238;BME280;13185;50.872;5.306;2022-11-20T03:06:31;100909.28;;;3.48;100.00
25238;BME280;13185;50.872;5.306;2022-11-20T03:08:57;100903.25;;;3.43;100.00
25238;BME280;13185;50.872;5.306;2022-11-20T03:11:22;100904.16;;;3.42;100.00
25238;BME280;13185;50.872;5.306;2022-11-20T03:13:48;100899.84;;;3.39;100.00
25238;BME280;13185;50.872;5.306;2022-11-20T03:16:16;100907.00;;;3.37;100.00
25238;BME280;13185;50.872;5.306;2022-11-20T03:18:43;100897.25;;;3.38;100.00
25238;BME280;13185;50.872;5.306;2022-11-20T03:21:09;100901.75;;;3.36;100.00
25238;BME280;13185;50.872;5.306;2022-11-20T03:23:36;100886.75;;;3.35;100.00
25238;BME280;13185;50.872;5.306;2022-11-20T03:26:20;100894.75;;;3.33;100.00
25238;BME280;13185;50.872;5.306;2022-11-20T03:28:50;100889.50;;;3.32;100.00
25238;BME280;13185;50.872;5.306;2022-11-20T03:31:18;100891.22;;;3.33;100.00
25238;BME280;13185;50.872;5.306;2022-11-20T03:33:44;100885.03;;;3.34;100.00
25238;BME280;13185;50.872;5.306;2022-11-20T03:36:12;100879.75;;;3.32;100.00
25238;BME280;13185;50.872;5.306;2022-11-20T03:38:38;100877.09;;;3.32;100.00
25238;BME280;13185;50.872;5.306;2022-11-20T03:41:06;100874.44;;;3.32;100.00
25238;BME280;13185;50.872;5.306;2022-11-20T03:43:32;100876.16;;;3.35;100.00
25238;BME280;13185;50.872;5.306;2022-11-20T03:45:58;100872.66;;;3.33;100.00
25238;BME280;13185;50.872;5.306;2022-11-20T03:48:24;100879.72;;;3.34;100.00
25238;BME280;13185;50.872;5.306;2022-11-20T03:50:51;100877.88;;;3.36;100.00
25238;BME280;13185;50.872;5.306;2022-11-20T03:53:16;100869.88;;;3.37;100.00
25238;BME280;13185;50.872;5.306;2022-11-20T03:55:42;100866.31;;;3.38;100.00
25238;BME280;13185;50.872;5.306;2022-11-20T03:58:08;100868.09;;;3.38;100.00
25238;BME280;13185;50.872;5.306;2022-11-20T04:00:34;100867.16;;;3.39;100.00
25238;BME280;13185;50.872;5.306;2022-11-20T04:03:01;100870.69;;;3.39;100.00
25238;BME280;13185;50.872;5.306;2022-11-20T04:05:27;100871.59;;;3.38;100.00
25238;BME280;13185;50.872;5.306;2022-11-20T04:07:53;100876.09;;;3.36;100.00
25238;BME280;13185;50.872;5.306;2022-11-20T04:10:18;100868.19;;;3.35;100.00
25238;BME280;13185;50.872;5.306;2022-11-20T04:12:44;100868.19;;;3.35;100.00
25238;BME280;13185;50.872;5.306;2022-11-20T04:15:09;100860.19;;;3.36;100.00
25238;BME280;13185;50.872;5.306;2022-11-20T04:17:35;100863.72;;;3.37;100.00
25238;BME280;13185;50.872;5.306;2022-11-20T04:20:01;100876.09;;;3.36;100.00
25238;BME280;13185;50.872;5.306;2022-11-20T04:22:26;100879.63;;;3.37;100.00
25238;BME280;13185;50.872;5.306;2022-11-20T04:24:52;100879.66;;;3.35;100.00
25238;BME280;13185;50.872;5.306;2022-11-20T04:27:17;100884.09;;;3.35;100.00
25238;BME280;13185;50.872;5.306;2022-11-20T04:29:43;100884.09;;;3.35;100.00
25238;BME280;13185;50.872;5.306;2022-11-20T04:32:08;100880.53;;;3.36;100.00
25238;BME280;13185;50.872;5.306;2022-11-20T04:34:34;100885.84;;;3.36;100.00
25238;BME280;13185;50.872;5.306;2022-11-20T04:37:00;100890.28;;;3.35;100.00
25238;BME280;13185;50.872;5.306;2022-11-20T04:39:25;100879.66;;;3.35;100.00
25238;BME280;13185;50.872;5.306;2022-11-20T04:41:50;100883.19;;;3.36;100.00
25238;BME280;13185;50.872;5.306;2022-11-20T04:44:39;100880.41;;;3.39;100.00
25238;BME280;13185;50.872;5.306;2022-11-20T04:47:04;100875.00;;;3.42;100.00
25238;BME280;13185;50.872;5.306;2022-11-20T04:49:31;100870.63;;;3.41;100.00
25238;BME280;13185;50.872;5.306;2022-11-20T04:51:58;100868.78;;;3.43;100.00
25238;BME280;13185;50.872;5.306;2022-11-20T04:54:23;100867.00;;;3.43;100.00
25238;BME280;13185;50.872;5.306;2022-11-20T04:56:49;100861.66;;;3.45;100.00
25238;BME280;13185;50.872;5.306;2022-11-20T04:59:15;100865.97;;;3.47;100.00
25238;BME280;13185;50.872;5.306;2022-11-20T05:01:40;100857.09;;;3.48;100.00
25238;BME280;13185;50.872;5.306;2022-11-20T05:04:06;100851.84;;;3.47;100.00
25238;BME280;13185;50.872;5.306;2022-11-20T05:06:31;100848.28;;;3.48;100.00
25238;BME280;13185;50.872;5.306;2022-11-20T05:08:57;100854.44;;;3.48;100.00
25238;BME280;13185;50.872;5.306;2022-11-20T05:11:23;100847.31;;;3.51;100.00
25238;BME280;13185;50.872;5.306;2022-11-20T05:13:50;100853.53;;;3.50;100.00
25238;BME280;13185;50.872;5.306;2022-11-20T05:16:18;100854.38;;;3.50;100.00
25238;BME280;13185;50.872;5.306;2022-11-20T05:18:44;100854.44;;;3.48;100.00
25238;BME280;13185;50.872;5.306;2022-11-20T05:21:10;100856.25;;;3.48;100.00
25238;BME280;13185;50.872;5.306;2022-11-20T05:23:36;100855.38;;;3.47;100.00
25238;BME280;13185;50.872;5.306;2022-11-20T05:26:03;100845.75;;;3.45;100.00
25238;BME280;13185;50.872;5.306;2022-11-20T05:28:29;100841.31;;;3.45;100.00
25238;BME280;13185;50.872;5.306;2022-11-20T05:30:55;100846.56;;;3.47;100.00
25238;BME280;13185;50.872;5.306;2022-11-20T05:33:21;100840.38;;;3.46;100.00
25238;BME280;13185;50.872;5.306;2022-11-20T05:35:47;100848.41;;;3.45;100.00
25238;BME280;13185;50.872;5.306;2022-11-20T05:38:13;100843.03;;;3.46;100.00
25238;BME280;13185;50.872;5.306;2022-11-20T05:40:39;100844.91;;;3.43;100.00
25238;BME280;13185;50.872;5.306;2022-11-20T05:43:04;100839.66;;;3.41;100.00
25238;BME280;13185;50.872;5.306;2022-11-20T05:45:30;100839.72;;;3.40;100.00
25238;BME280;13185;50.872;5.306;2022-11-20T05:47:59;100845.03;;;3.40;100.00
25238;BME280;13185;50.872;5.306;2022-11-20T05:50:28;100853.00;;;3.40;100.00
25238;BME280;13185;50.872;5.306;2022-11-20T05:52:53;100844.06;;;3.42;100.00
25238;BME280;13185;50.872;5.306;2022-11-20T05:55:19;100848.44;;;3.43;100.00
25238;BME280;13185;50.872;5.306;2022-11-20T05:57:44;100842.25;;;3.43;100.00
25238;BME280;13185;50.872;5.306;2022-11-20T06:00:10;100850.19;;;3.44;100.00
25238;BME280;13185;50.872;5.306;2022-11-20T06:02:36;100840.47;;;3.43;100.00
25238;BME280;13185;50.872;5.306;2022-11-20T06:05:01;100844.91;;;3.43;100.00
25238;BME280;13185;50.872;5.306;2022-11-20T06:07:26;100838.75;;;3.42;100.00
25238;BME280;13185;50.872;5.306;2022-11-20T06:09:52;100840.53;;;3.42;100.00
25238;BME280;13185;50.872;5.306;2022-11-20T06:12:17;100843.19;;;3.42;100.00
25238;BME280;13185;50.872;5.306;2022-11-20T06:14:43;100844.91;;;3.43;100.00
25238;BME280;13185;50.872;5.306;2022-11-20T06:17:08;100846.69;;;3.44;100.00
25238;BME280;13185;50.872;5.306;2022-11-20T06:19:33;100852.84;;;3.44;100.00
25238;BME280;13185;50.872;5.306;2022-11-20T06:21:59;100852.88;;;3.43;100.00
25238;BME280;13185;50.872;5.306;2022-11-20T06:24:24;100846.69;;;3.42;100.00
25238;BME280;13185;50.872;5.306;2022-11-20T06:26:50;100846.69;;;3.44;100.00
25238;BME280;13185;50.872;5.306;2022-11-20T06:29:16;100843.09;;;3.45;100.00
25238;BME280;13185;50.872;5.306;2022-11-20T06:31:41;100843.09;;;3.45;100.00
25238;BME280;13185;50.872;5.306;2022-11-20T06:34:08;100830.66;;;3.47;100.00
25238;BME280;13185;50.872;5.306;2022-11-20T06:36:34;100837.69;;;3.48;100.00
25238;BME280;13185;50.872;5.306;2022-11-20T06:39:00;100835.03;;;3.48;100.00
25238;BME280;13185;50.872;5.306;2022-11-20T06:41:25;100831.50;;;3.47;100.00
25238;BME280;13185;50.872;5.306;2022-11-20T06:43:51;100839.47;;;3.47;100.00
25238;BME280;13185;50.872;5.306;2022-11-20T06:46:18;100833.28;;;3.47;100.00
25238;BME280;13185;50.872;5.306;2022-11-20T06:48:44;100835.94;;;3.47;100.00
25238;BME280;13185;50.872;5.306;2022-11-20T06:51:10;100830.72;;;3.45;100.00
25238;BME280;13185;50.872;5.306;2022-11-20T06:53:36;100820.16;;;3.44;100.00
25238;BME280;13185;50.872;5.306;2022-11-20T06:56:02;100816.69;;;3.42;100.00
25238;BME280;13185;50.872;5.306;2022-11-20T06:58:29;100821.16;;;3.40;100.00
25238;BME280;13185;50.872;5.306;2022-11-20T07:00:59;100823.03;;;3.38;100.00
25238;BME280;13185;50.872;5.306;2022-11-20T07:03:25;100834.50;;;3.38;100.00
25238;BME280;13185;50.872;5.306;2022-11-20T07:05:50;100836.28;;;3.38;100.00
25238;BME280;13185;50.872;5.306;2022-11-20T07:08:16;100839.72;;;3.40;100.00
25238;BME280;13185;50.872;5.306;2022-11-20T07:10:42;100840.53;;;3.42;100.00
25238;BME280;13185;50.872;5.306;2022-11-20T07:13:07;100841.38;;;3.44;100.00
25238;BME280;13185;50.872;5.306;2022-11-20T07:15:32;100833.34;;;3.45;100.00
25238;BME280;13185;50.872;5.306;2022-11-20T07:17:59;100836.88;;;3.46;100.00
25238;BME280;13185;50.872;5.306;2022-11-20T07:20:25;100831.44;;;3.49;100.00
25238;BME280;13185;50.872;5.306;2022-11-20T07:22:54;100837.50;;;3.53;100.00
25238;BME280;13185;50.872;5.306;2022-11-20T07:25:20;100836.53;;;3.55;100.00
25238;BME280;13185;50.872;5.306;2022-11-20T07:27:45;100834.78;;;3.54;100.00
25238;BME280;13185;50.872;5.306;2022-11-20T07:30:11;100829.53;;;3.53;100.00
25238;BME280;13185;50.872;5.306;2022-11-20T07:32:37;100825.09;;;3.53;100.00
25238;BME280;13185;50.872;5.306;2022-11-20T07:35:03;100825.06;;;3.55;100.00
25238;BME280;13185;50.872;5.306;2022-11-20T07:37:28;100815.28;;;3.57;100.00
25238;BME280;13185;50.872;5.306;2022-11-20T07:39:54;100817.81;;;3.60;100.00
25238;BME280;13185;50.872;5.306;2022-11-20T07:42:19;100815.94;;;3.62;100.00
25238;BME280;13185;50.872;5.306;2022-11-20T07:44:45;100829.16;;;3.63;100.00
25238;BME280;13185;50.872;5.306;2022-11-20T07:47:10;100842.38;;;3.65;100.00
25238;BME280;13185;50.872;5.306;2022-11-20T07:49:36;100829.94;;;3.67;100.00
25238;BME280;13185;50.872;5.306;2022-11-20T07:52:01;100831.59;;;3.69;100.00
25238;BME280;13185;50.872;5.306;2022-11-20T07:54:26;100847.31;;;3.74;100.00
25238;BME280;13185;50.872;5.306;2022-11-20T07:56:53;100845.44;;;3.78;100.00
25238;BME280;13185;50.872;5.306;2022-11-20T07:59:19;100843.53;;;3.81;100.00
25238;BME280;13185;50.872;5.306;2022-11-20T08:01:44;100833.63;;;3.86;100.00
25238;BME280;13185;50.872;5.306;2022-11-20T08:04:10;100829.06;;;3.90;100.00
25238;BME280;13185;50.872;5.306;2022-11-20T08:06:36;100822.66;;;3.95;100.00
25238;BME280;13185;50.872;5.306;2022-11-20T08:09:01;100827.78;;;4.00;100.00
25238;BME280;13185;50.872;5.306;2022-11-20T08:11:27;100829.41;;;4.04;100.00
25238;BME280;13185;50.872;5.306;2022-11-20T08:14:11;100824.94;;;4.04;100.00
25238;BME280;13185;50.872;5.306;2022-11-20T08:16:45;100820.56;;;4.03;100.00
25238;BME280;13185;50.872;5.306;2022-11-20T08:19:12;100823.94;;;4.09;100.00
25238;BME280;13185;50.872;5.306;2022-11-20T08:21:38;100821.16;;;4.12;100.00
25238;BME280;13185;50.872;5.306;2022-11-20T08:24:04;100818.38;;;4.15;100.00
25238;BME280;13185;50.872;5.306;2022-11-20T08:26:29;100830.72;;;4.16;100.00
25238;BME280;13185;50.872;5.306;2022-11-20T08:28:57;100825.41;;;4.16;100.00
25238;BME280;13185;50.872;5.306;2022-11-20T08:31:25;100819.22;;;4.15;100.00
25238;BME280;13185;50.872;5.306;2022-11-20T08:33:51;100821.78;;;4.18;100.00
25238;BME280;13185;50.872;5.306;2022-11-20T08:36:16;100819.00;;;4.21;100.00
25238;BME280;13185;50.872;5.306;2022-11-20T08:38:47;100814.44;;;4.25;100.00
25238;BME280;13185;50.872;5.306;2022-11-20T08:41:13;100809.00;;;4.28;100.00
25238;BME280;13185;50.872;5.306;2022-11-20T08:43:56;100802.59;;;4.33;100.00
25238;BME280;13185;50.872;5.306;2022-11-20T08:46:23;100808.59;;;4.39;100.00
25238;BME280;13185;50.872;5.306;2022-11-20T08:48:49;100803.06;;;4.43;100.00
25238;BME280;13185;50.872;5.306;2022-11-20T08:51:15;100793.19;;;4.47;100.00
25238;BME280;13185;50.872;5.306;2022-11-20T08:53:41;100785.97;;;4.50;100.00
25238;BME280;13185;50.872;5.306;2022-11-20T08:56:07;100787.56;;;4.54;100.00
25238;BME280;13185;50.872;5.306;2022-11-20T08:58:34;100793.50;;;4.61;100.00
25238;BME280;13185;50.872;5.306;2022-11-20T09:01:00;100798.47;;;4.69;100.00
25238;BME280;13185;50.872;5.306;2022-11-20T09:03:25;100787.47;;;4.78;100.00
25238;BME280;13185;50.872;5.306;2022-11-20T09:06:05;100791.53;;;4.86;100.00
25238;BME280;13185;50.872;5.306;2022-11-20T09:08:32;100794.88;;;4.91;100.00
25238;BME280;13185;50.872;5.306;2022-11-20T09:10:58;100786.91;;;4.91;100.00
25238;BME280;13185;50.872;5.306;2022-11-20T09:13:26;100790.38;;;4.93;100.00
25238;BME280;13185;50.872;5.306;2022-11-20T09:15:56;100787.56;;;4.97;100.00
25238;BME280;13185;50.872;5.306;2022-11-20T09:18:22;100783.88;;;5.01;100.00
25238;BME280;13185;50.872;5.306;2022-11-20T09:20:48;100778.34;;;5.05;100.00
25238;BME280;13185;50.872;5.306;2022-11-20T09:23:14;100771.91;;;5.11;100.00
25238;BME280;13185;50.872;5.306;2022-11-20T09:25:40;100769.25;;;5.11;100.00
25238;BME280;13185;50.872;5.306;2022-11-20T09:28:05;100767.31;;;5.14;100.00
25238;BME280;13185;50.872;5.306;2022-11-20T09:30:31;100759.13;;;5.19;100.00
25238;BME280;13185;50.872;5.306;2022-11-20T09:32:57;100756.38;;;5.20;100.00
25238;BME280;13185;50.872;5.306;2022-11-20T09:35:22;100753.53;;;5.25;100.00
25238;BME280;13185;50.872;5.306;2022-11-20T09:37:48;100746.28;;;5.29;100.00
25238;BME280;13185;50.872;5.306;2022-11-20T09:45:46;100737.03;;;5.37;100.00
25238;BME280;13185;50.872;5.306;2022-11-20T09:48:40;100731.53;;;5.42;100.00
25238;BME280;13185;50.872;5.306;2022-11-20T09:53:46;100732.78;;;5.52;100.00
25238;BME280;13185;50.872;5.306;2022-11-20T09:56:16;100725.25;;;5.62;100.00
25238;BME280;13185;50.872;5.306;2022-11-20T09:58:45;100730.31;;;5.68;100.00
25238;BME280;13185;50.872;5.306;2022-11-20T10:01:17;100724.72;;;5.74;100.00
25238;BME280;13185;50.872;5.306;2022-11-20T10:04:19;100721.59;;;5.83;100.00
25238;BME280;13185;50.872;5.306;2022-11-20T10:07:13;100720.44;;;5.89;100.00
25238;BME280;13185;50.872;5.306;2022-11-20T10:09:57;100710.63;;;5.91;100.00
25238;BME280;13185;50.872;5.306;2022-11-20T10:12:52;100705.94;;;5.96;100.00
25238;BME280;13185;50.872;5.306;2022-11-20T10:15:40;100707.38;;;6.03;100.00
25238;BME280;13185;50.872;5.306;2022-11-20T10:20:52;100683.13;;;6.09;100.00
25238;BME280;13185;50.872;5.306;2022-11-20T10:23:41;100682.97;;;6.12;100.00
25238;BME280;13185;50.872;5.306;2022-11-20T10:26:36;100689.22;;;6.11;100.00
25238;BME280;13185;50.872;5.306;2022-11-20T10:29:15;100679.34;;;6.13;100.00
25238;BME280;13185;50.872;5.306;2022-11-20T10:31:57;100677.50;;;6.15;100.00
25238;BME280;13185;50.872;5.306;2022-11-20T10:34:41;100669.34;;;6.18;100.00
25238;BME280;13185;50.872;5.306;2022-11-20T10:37:22;100669.91;;;6.25;100.00
25238;BME280;13185;50.872;5.306;2022-11-20T10:40:20;100666.06;;;6.30;100.00
25238;BME280;13185;50.872;5.306;2022-11-20T10:42:50;100665.69;;;6.38;100.00
25238;BME280;13185;50.872;5.306;2022-11-20T10:45:32;100657.38;;;6.44;100.00
25238;BME280;13185;50.872;5.306;2022-11-20T10:48:11;100650.03;;;6.49;100.00
25238;BME280;13185;50.872;5.306;2022-11-20T10:50:49;100646.97;;;6.57;100.00
25238;BME280;13185;50.872;5.306;2022-11-20T10:53:33;100643.81;;;6.66;100.00
25238;BME280;13185;50.872;5.306;2022-11-20T10:56:09;100638.00;;;6.75;100.00
25238;BME280;13185;50.872;5.306;2022-11-20T11:01:24;100617.31;;;6.80;100.00
25238;BME280;13185;50.872;5.306;2022-11-20T11:03:52;100612.50;;;6.87;100.00
25238;BME280;13185;50.872;5.306;2022-11-20T11:06:34;100608.56;;;6.94;100.00
25238;BME280;13185;50.872;5.306;2022-11-20T11:09:04;100604.63;;;7.01;100.00
25238;BME280;13185;50.872;5.306;2022-11-20T11:11:34;100606.19;;;7.05;100.00
25238;BME280;13185;50.872;5.306;2022-11-20T11:14:07;100607.69;;;7.11;100.00
25238;BME280;13185;50.872;5.306;2022-11-20T11:16:33;100591.50;;;7.14;100.00
25238;BME280;13185;50.872;5.306;2022-11-20T11:19:07;100591.31;;;7.17;100.00
25238;BME280;13185;50.872;5.306;2022-11-20T11:21:37;100589.19;;;7.23;100.00
25238;BME280;13185;50.872;5.306;2022-11-20T11:24:23;100589.97;;;7.26;100.00
25238;BME280;13185;50.872;5.306;2022-11-20T11:26:57;100584.53;;;7.27;100.00
25238;BME280;13185;50.872;5.306;2022-11-20T11:29:23;100579.91;;;7.31;100.00
25238;BME280;13185;50.872;5.306;2022-11-20T11:31:49;100574.22;;;7.37;100.00
25238;BME280;13185;50.872;5.306;2022-11-20T11:34:16;100568.63;;;7.41;100.00
25238;BME280;13185;50.872;5.306;2022-11-20T11:36:51;100565.69;;;7.46;100.00
25238;BME280;13185;50.872;5.306;2022-11-20T11:39:20;100567.16;;;7.51;100.00
25238;BME280;13185;50.872;5.306;2022-11-20T11:41:47;100567.75;;;7.57;100.00
25238;BME280;13185;50.872;5.306;2022-11-20T11:47:01;100556.56;;;7.66;100.00
25238;BME280;13185;50.872;5.306;2022-11-20T11:49:28;100552.94;;;7.67;100.00
25238;BME280;13185;50.872;5.306;2022-11-20T11:52:15;100542.94;;;7.70;100.00
25238;BME280;13185;50.872;5.306;2022-11-20T11:55:03;100538.09;;;7.77;100.00
25238;BME280;13185;50.872;5.306;2022-11-20T12:00:11;100533.75;;;7.90;100.00
25238;BME280;13185;50.872;5.306;2022-11-20T12:05:22;100515.13;;;8.04;100.00
25238;BME280;13185;50.872;5.306;2022-11-20T12:07:59;100511.91;;;8.14;100.00
25238;BME280;13185;50.872;5.306;2022-11-20T12:15:59;100490.06;;;8.21;100.00
25238;BME280;13185;50.872;5.306;2022-11-20T12:18:25;100483.69;;;8.24;100.00
25238;BME280;13185;50.872;5.306;2022-11-20T12:26:40;100474.88;;;8.22;100.00
25238;BME280;13185;50.872;5.306;2022-11-20T12:39:49;100449.81;;;8.24;100.00
25238;BME280;13185;50.872;5.306;2022-11-20T12:42:56;100452.19;;;8.29;100.00
25238;BME280;13185;50.872;5.306;2022-11-20T12:48:39;100442.69;;;8.39;100.00
25238;BME280;13185;50.872;5.306;2022-11-20T12:51:27;100444.59;;;8.37;100.00
25238;BME280;13185;50.872;5.306;2022-11-20T12:54:26;100425.16;;;8.35;100.00
25238;BME280;13185;50.872;5.306;2022-11-20T13:00:23;100413.38;;;8.23;99.86
25238;BME280;13185;50.872;5.306;2022-11-20T13:16:33;100406.66;;;7.88;100.00
25238;BME280;13185;50.872;5.306;2022-11-20T13:19:03;100399.91;;;7.82;100.00
25238;BME280;13185;50.872;5.306;2022-11-20T13:24:23;100398.63;;;7.73;100.00
25238;BME280;13185;50.872;5.306;2022-11-20T13:29:42;100379.63;;;7.64;100.00
25238;BME280;13185;50.872;5.306;2022-11-20T13:32:16;100389.72;;;7.59;100.00
25238;BME280;13185;50.872;5.306;2022-11-20T13:34:53;100390.00;;;7.54;100.00
25238;BME280;13185;50.872;5.306;2022-11-20T13:37:58;100377.88;;;7.48;100.00
25238;BME280;13185;50.872;5.306;2022-11-20T13:40:24;100372.63;;;7.47;100.00
25238;BME280;13185;50.872;5.306;2022-11-20T13:43:02;100365.69;;;7.44;100.00
25238;BME280;13185;50.872;5.306;2022-11-20T13:45:31;100369.41;;;7.42;100.00
25238;BME280;13185;50.872;5.306;2022-11-20T13:47:59;100358.88;;;7.39;100.00
25238;BME280;13185;50.872;5.306;2022-11-20T13:50:40;100344.78;;;7.37;100.00
25238;BME280;13185;50.872;5.306;2022-11-20T13:53:26;100337.84;;;7.34;100.00
25238;BME280;13185;50.872;5.306;2022-11-20T13:56:10;100336.31;;;7.30;100.00
25238;BME280;13185;50.872;5.306;2022-11-20T13:59:01;100333.03;;;7.25;100.00
25238;BME280;13185;50.872;5.306;2022-11-20T14:01:30;100321.59;;;7.23;100.00
25238;BME280;13185;50.872;5.306;2022-11-20T14:04:05;100303.91;;;7.22;100.00
25238;BME280;13185;50.872;5.306;2022-11-20T14:06:39;100302.28;;;7.19;100.00
25238;BME280;13185;50.872;5.306;2022-11-20T14:09:24;100298.91;;;7.16;100.00
25238;BME280;13185;50.872;5.306;2022-11-20T14:11:50;100291.00;;;7.14;100.00
25238;BME280;13185;50.872;5.306;2022-11-20T14:14:19;100285.97;;;7.10;100.00
25238;BME280;13185;50.872;5.306;2022-11-20T14:16:46;100284.16;;;7.10;100.00
25238;BME280;13185;50.872;5.306;2022-11-20T14:19:27;100273.59;;;7.09;100.00